createdAt,value
2023-05-14T00:01:48.581Z,3.00
2023-05-14T00:04:16.855Z,3.00
2023-05-14T00:06:44.992Z,3.00
2023-05-14T00:09:13.255Z,3.50
2023-05-14T00:11:42.966Z,4.50
2023-05-14T00:14:11.115Z,5.25
2023-05-14T00:16:39.250Z,4.00
2023-05-14T00:19:07.673Z,5.25
2023-05-14T00:21:35.857Z,5.00
2023-05-14T00:24:04.003Z,5.00
2023-05-14T00:26:32.128Z,5.25
2023-05-14T00:29:01.774Z,5.75
2023-05-14T00:31:30.035Z,6.00
2023-05-14T00:33:58.228Z,2.00
2023-05-14T00:36:26.484Z,2.00
2023-05-14T00:38:54.609Z,5.00
2023-05-14T00:41:23.825Z,4.00
2023-05-14T00:43:52.110Z,5.00
2023-05-14T00:46:21.809Z,3.50
2023-05-14T00:48:50.060Z,3.00
2023-05-14T00:51:19.189Z,3.50
2023-05-14T00:53:47.824Z,5.00
2023-05-14T00:56:17.070Z,6.00
2023-05-14T00:58:45.265Z,4.50
2023-05-14T01:01:15.369Z,3.00
2023-05-14T01:03:45.579Z,1.50
2023-05-14T01:06:16.936Z,3.00
2023-05-14T01:08:51.291Z,4.50
2023-05-14T01:11:21.522Z,5.00
2023-05-14T01:13:55.099Z,2.75
2023-05-14T01:16:27.765Z,2.50
2023-05-14T01:18:58.391Z,3.50
2023-05-14T01:21:34.368Z,3.00
2023-05-14T01:24:02.543Z,5.25
2023-05-14T01:26:31.679Z,5.75
2023-05-14T01:29:02.562Z,5.00
2023-05-14T01:31:32.839Z,3.50
2023-05-14T01:34:02.315Z,5.00
2023-05-14T01:36:33.150Z,5.00
2023-05-14T01:39:01.985Z,3.00
2023-05-14T01:41:30.959Z,5.25
2023-05-14T01:43:59.187Z,2.75
2023-05-14T01:46:27.334Z,2.00
2023-05-14T01:48:55.488Z,3.00
2023-05-14T01:51:23.612Z,1.50
2023-05-14T01:53:53.355Z,2.50
2023-05-14T01:56:23.188Z,3.00
2023-05-14T01:58:52.063Z,5.00
2023-05-14T02:01:20.206Z,4.00
2023-05-14T02:03:49.300Z,3.50
2023-05-14T02:06:17.473Z,2.25
2023-05-14T02:08:45.594Z,3.00
2023-05-14T02:11:15.109Z,0.50
2023-05-14T02:13:43.291Z,3.00
2023-05-14T02:16:11.703Z,2.75
2023-05-14T02:18:40.166Z,2.00
2023-05-14T02:21:08.456Z,3.00
2023-05-14T02:23:41.612Z,2.00
2023-05-14T02:26:10.970Z,2.00
2023-05-14T02:28:40.901Z,2.00
2023-05-14T02:31:09.084Z,3.00
2023-05-14T02:33:37.369Z,2.00
2023-05-14T02:36:05.916Z,4.00
2023-05-14T02:38:34.027Z,1.00
2023-05-14T02:41:02.493Z,1.25
2023-05-14T02:43:30.588Z,2.00
2023-05-14T02:46:00.175Z,3.00
2023-05-14T02:48:28.286Z,2.75
2023-05-14T02:50:56.436Z,3.00
2023-05-14T02:53:24.523Z,1.25
2023-05-14T02:55:52.674Z,3.00
2023-05-14T02:58:20.810Z,3.00
2023-05-14T03:00:56.429Z,2.00
2023-05-14T03:03:26.813Z,1.00
2023-05-14T03:05:55.265Z,1.75
2023-05-14T03:08:23.395Z,2.00
2023-05-14T03:10:51.663Z,1.00
2023-05-14T03:13:20.916Z,2.00
2023-05-14T03:15:49.700Z,3.00
2023-05-14T03:18:17.826Z,1.50
2023-05-14T03:20:49.008Z,3.00
2023-05-14T03:23:17.153Z,3.00
2023-05-14T03:25:45.237Z,3.00
2023-05-14T03:28:13.381Z,2.75
2023-05-14T03:30:41.680Z,2.00
2023-05-14T03:33:11.380Z,2.00
2023-05-14T03:35:39.652Z,3.50
2023-05-14T03:38:09.233Z,4.50
2023-05-14T03:40:37.405Z,3.00
2023-05-14T03:43:05.651Z,2.25
2023-05-14T03:45:34.811Z,4.00
2023-05-14T03:48:03.061Z,3.00
2023-05-14T03:50:33.418Z,3.00
2023-05-14T03:53:01.715Z,2.50
2023-05-14T03:55:32.841Z,2.00
2023-05-14T03:58:01.176Z,3.00
2023-05-14T04:00:29.530Z,3.00
2023-05-14T04:02:57.981Z,3.75
2023-05-14T04:05:26.402Z,3.00
2023-05-14T04:07:54.891Z,3.00
2023-05-14T04:10:23.267Z,3.00
2023-05-14T04:12:53.046Z,2.00
2023-05-14T04:15:21.317Z,2.00
2023-05-14T04:17:49.666Z,2.00
2023-05-14T04:20:17.897Z,1.50
2023-05-14T04:22:46.046Z,2.00
2023-05-14T04:25:14.182Z,2.50
2023-05-14T04:27:42.360Z,2.00
2023-05-14T04:30:12.786Z,0.00
2023-05-14T04:32:40.978Z,2.00
2023-05-14T04:35:10.392Z,0.00
2023-05-14T04:37:38.539Z,2.50
2023-05-14T04:40:08.219Z,1.75
2023-05-14T04:42:36.576Z,3.00
2023-05-14T04:45:05.418Z,3.00
2023-05-14T04:47:36.250Z,2.25
2023-05-14T04:50:04.726Z,1.75
2023-05-14T04:52:33.976Z,2.00
2023-05-14T04:55:02.347Z,2.00
2023-05-14T04:57:33.166Z,1.00
2023-05-14T05:00:01.318Z,2.00
2023-05-14T05:02:32.070Z,1.50
2023-05-14T05:05:01.720Z,2.25
2023-05-14T05:07:34.962Z,1.50
2023-05-14T05:10:03.396Z,2.00
2023-05-14T05:12:35.570Z,2.00
2023-05-14T05:15:04.652Z,2.00
2023-05-14T05:17:36.474Z,2.00
2023-05-14T05:20:09.744Z,1.00
2023-05-14T05:22:38.313Z,1.75
2023-05-14T05:25:08.243Z,1.00
2023-05-14T05:27:36.697Z,2.00
2023-05-14T05:30:05.187Z,1.00
2023-05-14T05:32:36.337Z,1.00
2023-05-14T05:35:05.100Z,1.50
2023-05-14T05:37:34.958Z,0.50
2023-05-14T05:40:03.910Z,1.00
2023-05-14T05:42:32.654Z,2.00
2023-05-14T05:45:01.109Z,2.00
2023-05-14T05:47:34.544Z,1.00
2023-05-14T05:50:02.689Z,1.00
2023-05-14T05:52:32.315Z,1.00
2023-05-14T05:55:02.034Z,1.00
2023-05-14T05:57:33.050Z,0.25
2023-05-14T06:00:01.225Z,1.00
2023-05-14T06:02:29.554Z,2.00
2023-05-14T06:04:57.817Z,1.50
2023-05-14T06:07:26.056Z,0.00
2023-05-14T06:09:54.222Z,1.50
2023-05-14T06:12:42.326Z,1.25
2023-05-14T06:15:11.489Z,1.00
2023-05-14T06:17:39.935Z,1.00
2023-05-14T06:20:09.194Z,1.50
2023-05-14T06:22:37.823Z,1.00
2023-05-14T06:25:06.257Z,1.00
2023-05-14T06:27:34.588Z,1.00
2023-05-14T06:30:04.495Z,1.00
2023-05-14T06:32:34.934Z,1.00
2023-05-14T06:35:03.133Z,1.00
2023-05-14T06:37:33.754Z,0.00
2023-05-14T06:40:02.203Z,0.00
2023-05-14T06:42:34.461Z,1.00
2023-05-14T06:45:02.708Z,1.00
2023-05-14T06:47:35.452Z,0.25
2023-05-14T06:50:03.844Z,0.25
2023-05-14T06:52:34.357Z,0.00
2023-05-14T06:55:02.607Z,1.00
2023-05-14T06:57:34.815Z,0.00
2023-05-14T07:00:03.734Z,0.00
2023-05-14T07:02:37.855Z,1.00
2023-05-14T07:05:06.241Z,0.00
2023-05-14T07:07:34.426Z,0.00
2023-05-14T07:10:03.134Z,1.00
2023-05-14T07:12:32.832Z,0.00
2023-05-14T07:15:01.194Z,1.00
2023-05-14T07:17:32.763Z,0.00
2023-05-14T07:20:02.309Z,0.75
2023-05-14T07:22:34.104Z,1.00
2023-05-14T07:25:03.111Z,0.50
2023-05-14T07:27:34.042Z,1.00
2023-05-14T07:30:02.181Z,0.00
2023-05-14T07:32:33.272Z,1.00
2023-05-14T07:35:03.278Z,0.00
2023-05-14T07:37:33.225Z,1.00
2023-05-14T07:40:01.404Z,0.00
2023-05-14T07:42:36.704Z,0.00
2023-05-14T07:45:05.846Z,1.00
2023-05-14T07:47:35.877Z,0.00
2023-05-14T07:50:05.637Z,0.00
2023-05-14T07:52:34.618Z,1.00
2023-05-14T07:55:03.808Z,1.00
2023-05-14T07:57:34.188Z,0.00
2023-05-14T08:00:02.451Z,1.00
2023-05-14T08:02:42.672Z,0.00
2023-05-14T08:05:12.518Z,1.00
2023-05-14T08:07:41.539Z,1.00
2023-05-14T08:10:10.290Z,0.00
2023-05-14T08:12:39.094Z,0.00
2023-05-14T08:15:08.339Z,0.50
2023-05-14T08:17:37.092Z,1.00
2023-05-14T08:20:07.085Z,1.00
2023-05-14T08:22:36.803Z,0.50
2023-05-14T08:25:06.166Z,0.00
2023-05-14T08:27:36.338Z,0.75
2023-05-14T08:30:04.753Z,0.75
2023-05-14T08:32:34.260Z,0.25
2023-05-14T08:35:02.451Z,0.00
2023-05-14T08:37:32.232Z,0.00
2023-05-14T08:40:01.970Z,0.00
2023-05-14T08:42:33.828Z,0.00
2023-05-14T08:45:02.743Z,0.00
2023-05-14T08:47:34.862Z,1.00
2023-05-14T08:50:04.666Z,1.00
2023-05-14T08:52:34.583Z,0.00
2023-05-14T08:55:05.381Z,0.00
2023-05-14T08:57:34.479Z,0.25
2023-05-14T09:00:06.739Z,1.00
2023-05-14T09:02:36.052Z,0.00
2023-05-14T09:05:04.449Z,0.00
2023-05-14T09:07:33.958Z,0.50
2023-05-14T09:10:02.899Z,0.00
2023-05-14T09:12:35.559Z,0.00
2023-05-14T09:15:03.692Z,0.00
2023-05-14T09:17:34.884Z,0.80
2023-05-14T09:20:05.045Z,0.00
2023-05-14T09:22:34.226Z,0.00
2023-05-14T09:25:06.703Z,0.00
2023-05-14T09:27:37.611Z,0.75
2023-05-14T09:30:06.446Z,0.00
2023-05-14T09:32:38.555Z,0.00
2023-05-14T09:35:14.804Z,0.00
2023-05-14T09:37:44.019Z,0.00
2023-05-14T09:40:12.496Z,0.00
2023-05-14T09:42:42.650Z,0.00
2023-05-14T09:45:11.572Z,0.00
2023-05-14T09:47:40.153Z,1.00
2023-05-14T09:50:09.155Z,0.00
2023-05-14T09:52:37.460Z,0.00
2023-05-14T09:55:05.959Z,0.00
2023-05-14T09:57:34.716Z,0.00
2023-05-14T10:00:04.599Z,0.00
2023-05-14T10:02:38.288Z,0.00
2023-05-14T10:05:07.908Z,0.00
2023-05-14T10:07:38.332Z,0.60
2023-05-14T10:10:09.076Z,0.00
2023-05-14T10:12:40.008Z,0.00
2023-05-14T10:15:14.457Z,0.00
2023-05-14T10:17:45.935Z,0.00
2023-05-14T10:20:16.550Z,0.00
2023-05-14T10:22:45.097Z,0.00
2023-05-14T10:25:13.554Z,0.00
2023-05-14T10:27:42.550Z,1.00
2023-05-14T10:30:15.729Z,0.00
2023-05-14T10:32:44.400Z,0.00
2023-05-14T10:35:20.764Z,1.00
2023-05-14T10:37:52.161Z,0.00
2023-05-14T10:40:20.594Z,0.50
2023-05-14T10:42:49.126Z,0.00
2023-05-14T10:45:18.770Z,0.25
2023-05-14T10:47:47.775Z,1.00
2023-05-14T10:50:18.347Z,1.00
2023-05-14T10:52:47.042Z,0.00
2023-05-14T10:55:15.857Z,0.00
2023-05-14T10:57:45.215Z,0.00
2023-05-14T11:00:32.324Z,0.00
2023-05-14T11:03:01.902Z,1.00
2023-05-14T11:05:31.089Z,0.80
2023-05-14T11:07:59.848Z,1.00
2023-05-14T11:10:30.214Z,0.75
2023-05-14T11:12:59.099Z,1.00
2023-05-14T11:15:28.583Z,1.00
2023-05-14T11:17:56.929Z,0.00
2023-05-14T11:20:26.895Z,0.00
2023-05-14T11:22:55.524Z,0.00
2023-05-14T11:25:25.849Z,0.00
2023-05-14T11:27:58.400Z,0.00
2023-05-14T11:30:26.626Z,0.75
2023-05-14T11:32:56.055Z,0.80
2023-05-14T11:35:24.854Z,0.00
2023-05-14T11:37:55.053Z,0.75
2023-05-14T11:40:23.661Z,0.00
2023-05-14T11:42:52.682Z,0.75
2023-05-14T11:45:26.003Z,2.00
2023-05-14T11:47:55.300Z,2.00
2023-05-14T11:50:24.048Z,1.40
2023-05-14T11:52:52.453Z,1.00
2023-05-14T11:55:22.130Z,1.00
2023-05-14T11:57:50.305Z,2.00
2023-05-14T12:00:37.081Z,1.00
2023-05-14T12:03:09.134Z,1.00
2023-05-14T12:05:38.913Z,3.00
2023-05-14T12:08:37.847Z,0.25
2023-05-14T12:11:07.776Z,0.00
2023-05-14T12:13:37.695Z,1.00
2023-05-14T12:16:06.150Z,1.00
2023-05-14T12:18:35.058Z,1.00
2023-05-14T12:21:04.250Z,0.00
2023-05-14T12:23:33.464Z,1.50
2023-05-14T12:26:06.403Z,1.00
2023-05-14T12:28:38.564Z,1.25
2023-05-14T12:31:07.276Z,1.00
2023-05-14T12:33:35.456Z,0.75
2023-05-14T12:38:35.081Z,1.25
2023-05-14T12:41:03.297Z,2.50
2023-05-14T12:43:32.331Z,0.00
2023-05-14T12:46:01.926Z,2.00
2023-05-14T12:48:30.106Z,1.75
2023-05-14T12:50:58.267Z,2.25
2023-05-14T12:53:26.458Z,2.75
2023-05-14T12:55:55.894Z,0.25
2023-05-14T12:58:24.121Z,1.00
2023-05-14T13:00:52.283Z,1.75
2023-05-14T13:03:22.135Z,3.00
2023-05-14T13:05:50.312Z,2.75
2023-05-14T13:08:21.653Z,1.00
2023-05-14T13:10:49.845Z,2.00
2023-05-14T13:13:18.206Z,1.00
2023-05-14T13:15:47.226Z,4.00
2023-05-14T13:18:15.395Z,2.00
2023-05-14T13:20:44.989Z,2.75
2023-05-14T13:23:13.149Z,3.00
2023-05-14T13:25:41.409Z,2.00
2023-05-14T13:28:09.776Z,2.00
2023-05-14T13:30:37.981Z,1.00
2023-05-14T13:33:06.385Z,3.00
2023-05-14T13:35:35.602Z,2.75
2023-05-14T13:38:05.163Z,0.25
2023-05-14T13:40:33.392Z,2.00
2023-05-14T13:43:01.524Z,1.00
2023-05-14T13:45:29.664Z,3.00
2023-05-14T13:47:57.854Z,2.00
2023-05-14T13:50:26.075Z,2.50
2023-05-14T13:52:54.245Z,2.25
2023-05-14T13:55:23.953Z,4.00
2023-05-14T13:57:52.603Z,2.00
2023-05-14T14:00:20.861Z,3.00
2023-05-14T14:02:49.070Z,3.00
2023-05-14T14:05:17.335Z,3.00
2023-05-14T14:07:46.996Z,3.00
2023-05-14T14:10:15.929Z,3.25
2023-05-14T14:12:45.508Z,4.00
2023-05-14T14:15:14.091Z,2.00
2023-05-14T14:17:42.936Z,4.00
2023-05-14T14:20:12.042Z,3.50
2023-05-14T14:22:40.223Z,2.75
2023-05-14T14:25:08.603Z,2.00
2023-05-14T14:27:38.875Z,0.00
2023-05-14T14:30:15.771Z,3.00
2023-05-14T14:32:44.837Z,3.25
2023-05-14T14:35:13.978Z,3.00
2023-05-14T14:37:43.099Z,3.00
2023-05-14T14:40:12.274Z,2.00
2023-05-14T14:42:40.479Z,3.00
2023-05-14T14:45:10.516Z,3.00
2023-05-14T14:47:38.957Z,3.00
2023-05-14T14:50:07.858Z,3.00
2023-05-14T14:52:36.825Z,2.25
2023-05-14T14:55:05.280Z,3.00
2023-05-14T14:57:33.919Z,2.25
2023-05-14T15:00:02.667Z,3.00
2023-05-14T15:02:42.226Z,3.50
2023-05-14T15:05:11.141Z,4.75
2023-05-14T15:07:39.334Z,4.25
2023-05-14T15:10:08.074Z,4.00
2023-05-14T15:12:36.245Z,3.25
2023-05-14T15:15:04.502Z,4.00
2023-05-14T15:17:34.040Z,4.00
2023-05-14T15:20:03.776Z,5.75
2023-05-14T15:22:33.067Z,4.00
2023-05-14T15:25:01.358Z,3.00
2023-05-14T15:27:32.658Z,3.75
2023-05-14T15:30:00.847Z,4.25
2023-05-14T15:32:29.318Z,4.00
2023-05-14T15:34:57.630Z,1.00
2023-05-14T15:37:27.406Z,3.25
2023-05-14T15:39:55.762Z,4.75
2023-05-14T15:42:23.996Z,3.50
2023-05-14T15:44:52.280Z,2.00
2023-05-14T15:47:20.698Z,3.00
2023-05-14T15:49:48.991Z,4.00
2023-05-14T15:52:17.244Z,6.00
2023-05-14T15:54:47.894Z,4.25
2023-05-14T15:57:17.881Z,4.00
2023-05-14T15:59:48.358Z,4.75
2023-05-14T16:02:17.065Z,3.00
2023-05-14T16:04:46.413Z,4.00
2023-05-14T16:07:14.582Z,4.00
2023-05-14T16:09:43.007Z,4.25
2023-05-14T16:12:34.559Z,5.00
2023-05-14T16:15:20.424Z,5.00
2023-05-14T16:18:05.915Z,4.00
2023-05-14T16:20:34.270Z,5.75
2023-05-14T16:23:02.779Z,4.50
2023-05-14T16:25:31.415Z,4.00
2023-05-14T16:28:01.440Z,5.00
2023-05-14T16:30:29.794Z,4.25
2023-05-14T16:32:58.112Z,3.00
2023-05-14T16:35:45.613Z,3.00
2023-05-14T16:38:32.686Z,4.00
2023-05-14T16:41:00.891Z,4.00
2023-05-14T16:43:30.532Z,3.25
2023-05-14T16:45:58.802Z,2.00
2023-05-14T16:48:27.829Z,2.00
2023-05-14T16:50:56.358Z,0.75
2023-05-14T16:53:24.611Z,2.25
2023-05-14T16:55:53.077Z,2.00
2023-05-14T16:58:21.281Z,2.00
2023-05-14T17:01:09.690Z,3.00
2023-05-14T17:03:39.801Z,3.00
2023-05-14T17:06:10.216Z,1.25
2023-05-14T17:08:38.451Z,3.00
2023-05-14T17:11:25.070Z,2.75
2023-05-14T17:13:53.273Z,3.00
2023-05-14T17:16:22.965Z,4.00
2023-05-14T17:18:52.982Z,7.00
2023-05-14T17:21:21.376Z,6.75
2023-05-14T17:23:49.642Z,4.25
2023-05-14T17:26:17.840Z,3.00
2023-05-14T17:29:03.451Z,3.00
2023-05-14T17:31:31.572Z,2.00
2023-05-14T17:34:01.277Z,2.50
2023-05-14T17:36:49.001Z,3.00
2023-05-14T17:39:17.267Z,4.00
2023-05-14T17:42:03.138Z,3.25
2023-05-14T17:44:31.514Z,3.00
2023-05-14T17:47:00.574Z,3.00
2023-05-14T17:49:30.279Z,3.25
2023-05-14T17:52:17.226Z,2.25
2023-05-14T17:54:45.575Z,3.00
2023-05-14T17:57:13.854Z,3.00
2023-05-14T17:59:42.203Z,1.00
2023-05-14T18:02:10.468Z,2.00
2023-05-14T18:04:40.408Z,4.00
2023-05-14T18:07:08.762Z,3.00
2023-05-14T18:09:36.924Z,3.00
2023-05-14T18:12:05.272Z,3.00
2023-05-14T18:14:50.811Z,2.00
2023-05-14T18:17:19.214Z,2.50
2023-05-14T18:19:49.157Z,2.00
2023-05-14T18:23:11.889Z,3.00
2023-05-14T18:25:40.582Z,2.00
2023-05-14T18:28:09.469Z,2.00
2023-05-14T18:30:37.973Z,1.00
2023-05-14T18:33:06.471Z,1.00
2023-05-14T18:35:36.405Z,2.25
2023-05-14T18:38:23.062Z,2.25
2023-05-14T18:40:51.398Z,4.00
2023-05-14T18:43:20.041Z,3.00
2023-05-14T18:45:48.454Z,3.00
2023-05-14T18:48:16.824Z,1.25
2023-05-14T18:50:46.526Z,2.00
2023-05-14T18:53:33.468Z,3.00
2023-05-14T18:56:01.756Z,3.00
2023-05-14T18:58:30.061Z,4.25
2023-05-14T19:00:59.348Z,3.00
2023-05-14T19:03:27.893Z,3.00
2023-05-14T19:05:57.896Z,4.25
2023-05-14T19:08:43.687Z,3.00
2023-05-14T19:11:11.915Z,3.75
2023-05-14T19:13:58.917Z,1.50
2023-05-14T19:16:45.755Z,2.25
2023-05-14T19:19:14.275Z,2.75
2023-05-14T19:22:00.996Z,3.00
2023-05-14T19:24:30.807Z,2.00
2023-05-14T19:26:59.708Z,2.50
2023-05-14T19:29:45.496Z,3.75
2023-05-14T19:32:13.795Z,3.75
2023-05-14T19:34:42.382Z,4.25
2023-05-14T19:37:10.841Z,3.00
2023-05-14T19:39:40.501Z,6.00
2023-05-14T19:42:08.792Z,3.00
2023-05-14T19:44:36.989Z,4.75
2023-05-14T19:47:05.274Z,6.00
2023-05-14T19:49:33.532Z,4.75
2023-05-14T19:52:01.801Z,6.00
2023-05-14T19:54:30.124Z,5.00
2023-05-14T19:56:59.870Z,1.50
2023-05-14T19:59:29.646Z,3.00
2023-05-14T20:01:57.859Z,2.00
2023-05-14T20:04:26.221Z,3.75
2023-05-14T20:07:14.111Z,2.75
2023-05-14T20:09:42.568Z,3.75
2023-05-14T20:12:13.082Z,5.00
2023-05-14T20:14:41.580Z,5.75
2023-05-14T20:17:09.982Z,4.75
2023-05-14T20:19:38.333Z,10.00
2023-05-14T20:22:06.641Z,5.00
2023-05-14T20:24:34.759Z,6.00
2023-05-14T20:27:03.081Z,3.50
2023-05-14T20:29:32.695Z,5.00
2023-05-14T20:32:00.815Z,3.00
2023-05-14T20:34:29.111Z,2.75
2023-05-14T20:36:57.741Z,4.25
2023-05-14T20:39:26.141Z,4.25
2023-05-14T20:41:54.382Z,5.00
2023-05-14T20:44:22.628Z,5.50
2023-05-14T20:46:52.517Z,5.00
2023-05-14T20:49:20.935Z,7.00
2023-05-14T20:51:49.126Z,3.50
2023-05-14T20:54:17.271Z,2.75
2023-05-14T20:56:45.746Z,3.00
2023-05-14T20:59:14.365Z,3.00
2023-05-14T21:01:42.924Z,5.00
2023-05-14T21:04:12.795Z,5.25
2023-05-14T21:06:41.082Z,3.50
2023-05-14T21:09:09.340Z,2.25
2023-05-14T21:11:37.469Z,3.00
2023-05-14T21:14:05.847Z,3.50
2023-05-14T21:16:34.013Z,5.00
2023-05-14T21:19:02.272Z,6.00
2023-05-14T21:21:31.883Z,6.75
2023-05-14T21:24:00.026Z,2.75
2023-05-14T21:26:29.580Z,4.50
2023-05-14T21:28:57.812Z,5.00
2023-05-14T21:31:26.580Z,2.00
2023-05-14T21:33:54.930Z,4.00
2023-05-14T21:36:23.142Z,5.25
2023-05-14T21:38:52.719Z,3.50
2023-05-14T21:41:21.452Z,5.75
2023-05-14T21:43:52.379Z,2.00
2023-05-14T21:46:20.584Z,3.50
2023-05-14T21:48:48.875Z,5.00
2023-05-14T21:51:17.227Z,6.50
2023-05-14T21:53:46.369Z,6.50
2023-05-14T21:56:15.911Z,8.50
2023-05-14T21:58:44.131Z,9.00
2023-05-14T22:01:12.664Z,7.00
2023-05-14T22:03:40.854Z,7.00
2023-05-14T22:06:09.173Z,9.50
2023-05-14T22:08:37.286Z,10.50
2023-05-14T22:11:05.630Z,7.75
2023-05-14T22:13:37.757Z,11.00
2023-05-14T22:16:12.645Z,13.33
2023-05-14T22:18:42.786Z,16.00
2023-05-14T22:21:11.064Z,15.75
2023-05-14T22:23:39.364Z,14.50
2023-05-14T22:26:07.629Z,9.75
2023-05-14T22:28:40.000Z,16.25
2023-05-14T22:31:08.209Z,22.40
2023-05-14T22:33:36.417Z,27.40
2023-05-14T22:36:04.597Z,29.00
2023-05-14T22:38:32.711Z,26.00
2023-05-14T22:41:00.889Z,26.80
2023-05-14T22:43:29.105Z,28.60
2023-05-14T22:45:59.569Z,30.00
2023-05-14T22:48:27.979Z,31.20
2023-05-14T22:50:56.117Z,31.40
2023-05-14T22:53:25.256Z,33.60
2023-05-14T22:55:53.759Z,34.00
2023-05-14T22:58:21.887Z,30.60
2023-05-14T23:00:50.087Z,14.60
2023-05-14T23:03:19.680Z,35.00
2023-05-14T23:05:47.823Z,34.80
2023-05-14T23:08:15.935Z,34.80
2023-05-14T23:10:44.157Z,36.20
2023-05-14T23:13:12.301Z,34.60
2023-05-14T23:15:40.450Z,36.00
2023-05-14T23:18:09.214Z,34.40
2023-05-14T23:20:38.791Z,37.80
2023-05-14T23:23:07.157Z,37.00
2023-05-14T23:25:35.282Z,34.00
2023-05-14T23:28:03.431Z,38.00
2023-05-14T23:30:31.533Z,37.00
2023-05-14T23:32:59.916Z,36.80
2023-05-14T23:35:28.168Z,38.80
2023-05-14T23:37:57.746Z,34.00
2023-05-14T23:40:25.879Z,36.60
2023-05-14T23:42:54.319Z,36.00
2023-05-14T23:45:22.730Z,31.20
2023-05-14T23:47:51.728Z,28.60
2023-05-14T23:50:20.124Z,34.80
2023-05-14T23:52:48.812Z,31.00
2023-05-14T23:55:18.505Z,29.80
2023-05-14T23:57:49.435Z,29.20
